createdAt,value
2023-02-14T00:02:21.853Z,1.30
2023-02-14T00:05:23.364Z,1.45
2023-02-14T00:08:24.866Z,1.30
2023-02-14T00:11:26.394Z,1.20
2023-02-14T00:14:46.407Z,1.30
2023-02-14T00:17:49.666Z,1.15
2023-02-14T00:20:51.344Z,1.40
2023-02-14T00:23:52.834Z,1.42
2023-02-14T00:26:54.587Z,1.25
2023-02-14T00:29:58.207Z,1.05
2023-02-14T00:32:59.729Z,1.17
2023-02-14T00:36:04.110Z,1.20
2023-02-14T00:39:07.716Z,1.20
2023-02-14T00:42:13.607Z,1.20
2023-02-14T00:45:18.865Z,1.30
2023-02-14T00:48:20.394Z,1.20
2023-02-14T00:51:22.501Z,1.25
2023-02-14T00:54:24.883Z,1.20
2023-02-14T00:57:26.640Z,1.10
2023-02-14T01:00:28.131Z,1.30
2023-02-14T01:03:30.759Z,1.10
2023-02-14T01:06:32.275Z,1.20
2023-02-14T01:09:33.909Z,1.00
2023-02-14T01:12:36.819Z,1.25
2023-02-14T01:15:44.226Z,1.27
2023-02-14T01:18:46.376Z,1.10
2023-02-14T01:21:47.850Z,1.15
2023-02-14T01:24:49.360Z,1.10
2023-02-14T01:27:50.936Z,1.20
2023-02-14T01:30:52.421Z,1.15
2023-02-14T01:33:55.080Z,1.10
2023-02-14T01:36:56.576Z,1.20
2023-02-14T01:39:58.074Z,1.23
2023-02-14T01:42:59.561Z,1.10
2023-02-14T01:46:01.190Z,1.20
2023-02-14T01:49:13.224Z,1.20
2023-02-14T01:52:20.603Z,1.20
2023-02-14T01:55:26.828Z,1.08
2023-02-14T01:58:34.849Z,1.20
2023-02-14T02:01:36.608Z,1.20
2023-02-14T02:04:40.620Z,1.10
2023-02-14T02:07:42.374Z,1.10
2023-02-14T02:10:43.867Z,1.10
2023-02-14T02:13:45.324Z,1.10
2023-02-14T02:17:20.492Z,1.20
2023-02-14T02:20:29.001Z,1.20
2023-02-14T02:23:41.262Z,1.20
2023-02-14T02:27:08.525Z,1.10
2023-02-14T02:30:34.748Z,1.20
2023-02-14T02:33:45.299Z,1.02
2023-02-14T02:37:05.482Z,1.30
2023-02-14T02:40:33.254Z,1.08
2023-02-14T02:44:08.868Z,1.08
2023-02-14T02:47:23.551Z,1.15
2023-02-14T02:51:10.666Z,1.10
2023-02-14T02:54:23.450Z,1.02
2023-02-14T02:57:31.588Z,1.10
2023-02-14T03:00:33.575Z,1.05
2023-02-14T03:03:55.815Z,1.00
2023-02-14T03:06:58.586Z,1.17
2023-02-14T03:10:21.392Z,1.00
2023-02-14T03:13:29.021Z,1.30
2023-02-14T03:16:34.627Z,1.10
2023-02-14T03:20:15.043Z,1.10
2023-02-14T03:23:35.942Z,1.20
2023-02-14T03:26:51.543Z,1.20
2023-02-14T03:30:02.209Z,1.00
2023-02-14T03:33:27.474Z,1.00
2023-02-14T03:36:56.486Z,1.10
2023-02-14T03:40:04.661Z,1.10
2023-02-14T03:43:10.323Z,1.20
2023-02-14T03:46:23.379Z,1.20
2023-02-14T03:49:30.718Z,1.20
2023-02-14T03:52:34.476Z,1.10
2023-02-14T03:56:02.315Z,1.02
2023-02-14T03:59:20.539Z,1.08
2023-02-14T04:02:50.854Z,1.02
2023-02-14T04:05:52.709Z,0.93
2023-02-14T04:08:54.256Z,0.90
2023-02-14T04:11:56.115Z,1.10
2023-02-14T04:14:57.607Z,1.00
2023-02-14T04:18:18.022Z,1.00
2023-02-14T04:21:19.576Z,1.10
2023-02-14T04:24:21.125Z,1.05
2023-02-14T04:27:22.596Z,1.00
2023-02-14T04:30:24.175Z,1.00
2023-02-14T04:33:25.741Z,0.95
2023-02-14T04:36:27.201Z,1.00
2023-02-14T04:39:29.047Z,0.90
2023-02-14T04:42:30.601Z,1.00
2023-02-14T04:45:32.133Z,1.00
2023-02-14T04:48:33.627Z,1.00
2023-02-14T04:51:35.133Z,1.15
2023-02-14T04:54:36.636Z,1.00
2023-02-14T04:57:38.153Z,0.98
2023-02-14T05:00:39.640Z,1.00
2023-02-14T05:03:41.110Z,0.98
2023-02-14T05:06:42.628Z,0.93
2023-02-14T05:09:44.147Z,1.00
2023-02-14T05:12:45.675Z,1.10
2023-02-14T05:15:47.234Z,1.00
2023-02-14T05:18:48.909Z,1.00
2023-02-14T05:21:50.410Z,1.15
2023-02-14T05:24:51.938Z,1.00
2023-02-14T05:27:53.458Z,1.00
2023-02-14T05:30:56.890Z,1.13
2023-02-14T05:33:58.443Z,1.10
2023-02-14T05:37:00.001Z,1.00
2023-02-14T05:40:01.537Z,1.00
2023-02-14T05:43:03.016Z,1.00
2023-02-14T05:46:04.835Z,1.10
2023-02-14T05:49:06.351Z,0.93
2023-02-14T05:52:07.804Z,1.00
2023-02-14T05:55:10.268Z,1.00
2023-02-14T05:58:12.539Z,1.20
2023-02-14T06:01:14.305Z,1.00
2023-02-14T06:04:15.808Z,0.90
2023-02-14T06:07:17.666Z,1.00
2023-02-14T06:10:25.526Z,0.85
2023-02-14T06:13:27.019Z,1.00
2023-02-14T06:16:28.657Z,1.00
2023-02-14T06:19:30.174Z,1.00
2023-02-14T06:22:31.702Z,0.95
2023-02-14T06:25:33.348Z,0.90
2023-02-14T06:28:34.851Z,0.90
2023-02-14T06:31:36.466Z,0.93
2023-02-14T06:34:39.790Z,0.90
2023-02-14T06:37:42.210Z,1.00
2023-02-14T06:40:43.794Z,1.00
2023-02-14T06:43:48.578Z,1.00
2023-02-14T06:46:50.115Z,0.90
2023-02-14T06:49:51.566Z,1.00
2023-02-14T06:52:53.057Z,0.98
2023-02-14T06:55:54.860Z,1.00
2023-02-14T06:58:56.303Z,1.00
2023-02-14T07:01:57.860Z,0.90
2023-02-14T07:04:59.354Z,1.00
2023-02-14T07:08:01.191Z,0.90
2023-02-14T07:11:03.063Z,1.05
2023-02-14T07:14:04.736Z,0.90
2023-02-14T07:17:06.245Z,0.90
2023-02-14T07:20:09.264Z,1.10
2023-02-14T07:23:11.073Z,1.10
2023-02-14T07:26:17.830Z,1.00
2023-02-14T07:29:19.344Z,1.00
2023-02-14T07:32:21.050Z,1.00
2023-02-14T07:35:22.822Z,1.20
2023-02-14T07:38:24.747Z,1.23
2023-02-14T07:41:26.191Z,0.90
2023-02-14T07:44:27.738Z,1.00
2023-02-14T07:47:29.245Z,1.00
2023-02-14T07:50:30.853Z,1.00
2023-02-14T07:53:32.448Z,1.05
2023-02-14T07:56:33.999Z,1.00
2023-02-14T07:59:35.538Z,0.93
2023-02-14T08:02:37.087Z,1.02
2023-02-14T08:05:38.968Z,1.10
2023-02-14T08:08:40.459Z,0.90
2023-02-14T08:12:00.542Z,1.63
2023-02-14T08:15:22.032Z,1.00
2023-02-14T08:18:23.586Z,1.13
2023-02-14T08:21:25.169Z,1.00
2023-02-14T08:24:26.743Z,1.10
2023-02-14T08:27:28.197Z,1.10
2023-02-14T08:30:30.440Z,1.00
2023-02-14T08:33:32.464Z,0.93
2023-02-14T08:36:34.922Z,1.00
2023-02-14T08:39:36.433Z,1.20
2023-02-14T08:42:38.053Z,1.00
2023-02-14T08:45:40.155Z,1.00
2023-02-14T08:48:41.737Z,1.00
2023-02-14T08:51:43.264Z,1.02
2023-02-14T08:54:44.868Z,0.98
2023-02-14T08:57:46.431Z,0.98
2023-02-14T09:00:47.961Z,1.10
2023-02-14T09:03:49.707Z,0.90
2023-02-14T09:06:51.272Z,1.02
2023-02-14T09:09:52.856Z,1.02
2023-02-14T09:12:54.404Z,1.20
2023-02-14T09:15:55.918Z,1.05
2023-02-14T09:18:57.472Z,1.00
2023-02-14T09:21:59.046Z,1.10
2023-02-14T09:25:01.010Z,1.00
2023-02-14T09:28:02.480Z,1.00
2023-02-14T09:31:15.943Z,1.00
2023-02-14T09:34:17.474Z,0.95
2023-02-14T09:37:37.362Z,1.20
2023-02-14T09:40:38.987Z,1.00
2023-02-14T09:44:17.022Z,1.00
2023-02-14T09:47:42.322Z,1.20
2023-02-14T09:50:49.594Z,1.10
2023-02-14T09:54:00.598Z,1.10
2023-02-14T09:57:21.731Z,0.90
2023-02-14T10:00:34.500Z,1.10
2023-02-14T10:03:54.620Z,1.10
2023-02-14T10:07:23.237Z,1.15
2023-02-14T10:10:30.938Z,1.00
2023-02-14T10:13:42.015Z,1.13
2023-02-14T10:16:53.601Z,1.15
2023-02-14T10:20:01.797Z,1.10
2023-02-14T10:23:17.429Z,1.10
2023-02-14T10:26:27.615Z,1.00
2023-02-14T10:29:29.403Z,1.10
2023-02-14T10:32:38.270Z,1.05
2023-02-14T10:35:50.537Z,1.00
2023-02-14T10:39:25.443Z,1.23
2023-02-14T10:42:52.155Z,1.05
2023-02-14T10:46:18.279Z,1.00
2023-02-14T10:49:19.812Z,1.10
2023-02-14T10:52:34.320Z,1.00
2023-02-14T10:55:56.767Z,0.90
2023-02-14T10:59:02.715Z,1.10
2023-02-14T11:02:06.268Z,0.98
2023-02-14T11:05:17.817Z,1.02
2023-02-14T11:08:22.983Z,1.10
2023-02-14T11:11:30.447Z,1.05
2023-02-14T11:14:35.844Z,0.98
2023-02-14T11:17:37.929Z,1.10
2023-02-14T11:20:39.374Z,0.90
2023-02-14T11:23:42.467Z,0.95
2023-02-14T11:26:49.972Z,1.10
2023-02-14T11:29:54.056Z,0.95
2023-02-14T11:32:56.420Z,1.05
2023-02-14T11:35:58.624Z,1.08
2023-02-14T11:39:20.859Z,0.90
2023-02-14T11:42:38.582Z,0.90
2023-02-14T11:45:45.473Z,0.90
2023-02-14T11:49:04.881Z,1.10
2023-02-14T11:52:15.850Z,1.50
2023-02-14T11:55:35.590Z,2.03
2023-02-14T11:58:43.224Z,2.40
2023-02-14T12:01:46.493Z,2.33
2023-02-14T12:04:52.820Z,2.38
2023-02-14T12:07:57.545Z,2.33
2023-02-14T12:11:17.630Z,2.50
2023-02-14T12:14:23.529Z,2.58
2023-02-14T12:17:37.490Z,2.75
2023-02-14T12:20:49.330Z,2.55
2023-02-14T12:23:51.165Z,2.08
2023-02-14T12:27:24.608Z,2.20
2023-02-14T12:30:31.077Z,2.20
2023-02-14T12:33:32.579Z,2.10
2023-02-14T12:36:52.671Z,2.30
2023-02-14T12:40:10.826Z,2.42
2023-02-14T12:43:54.138Z,2.60
2023-02-14T12:47:15.159Z,2.60
2023-02-14T12:50:16.704Z,2.78
2023-02-14T12:53:27.318Z,2.78
2023-02-14T12:56:56.494Z,2.40
2023-02-14T13:00:09.962Z,2.40
2023-02-14T13:03:20.552Z,2.30
2023-02-14T13:06:29.373Z,2.35
2023-02-14T13:09:49.260Z,2.38
2023-02-14T13:13:01.004Z,2.17
2023-02-14T13:16:35.254Z,2.10
2023-02-14T13:20:04.051Z,2.13
2023-02-14T13:23:13.507Z,1.60
2023-02-14T13:26:20.282Z,1.80
2023-02-14T13:29:28.875Z,1.50
2023-02-14T13:32:36.855Z,1.67
2023-02-14T13:35:39.599Z,1.48
2023-02-14T13:41:56.702Z,1.77
2023-02-14T13:44:58.374Z,1.60
2023-02-14T13:48:26.760Z,1.60
2023-02-14T13:51:46.195Z,1.52
2023-02-14T13:54:48.611Z,1.60
2023-02-14T13:58:17.118Z,1.80
2023-02-14T14:01:33.943Z,1.65
2023-02-14T14:04:37.371Z,1.85
2023-02-14T14:07:38.930Z,1.40
2023-02-14T14:10:55.543Z,1.35
2023-02-14T14:13:59.502Z,1.55
2023-02-14T14:17:01.078Z,1.40
2023-02-14T14:20:20.609Z,1.58
2023-02-14T14:23:30.112Z,1.50
2023-02-14T14:26:44.786Z,1.50
2023-02-14T14:29:49.947Z,1.98
2023-02-14T14:32:51.696Z,1.38
2023-02-14T14:35:59.777Z,1.52
2023-02-14T14:39:01.665Z,1.60
2023-02-14T14:42:09.720Z,1.40
2023-02-14T14:45:24.772Z,1.40
2023-02-14T14:48:45.488Z,1.30
2023-02-14T14:51:48.463Z,1.80
2023-02-14T14:54:50.030Z,1.63
2023-02-14T14:57:56.709Z,1.50
2023-02-14T15:04:25.511Z,1.40
2023-02-14T15:07:32.720Z,1.50
2023-02-14T15:10:34.972Z,1.40
2023-02-14T15:13:53.486Z,1.30
2023-02-14T15:17:00.517Z,1.30
2023-02-14T15:20:09.760Z,1.45
2023-02-14T15:23:19.766Z,1.25
2023-02-14T15:26:31.521Z,1.25
2023-02-14T15:29:33.487Z,1.60
2023-02-14T15:32:37.148Z,1.20
2023-02-14T15:35:43.897Z,1.30
2023-02-14T15:38:45.675Z,1.52
2023-02-14T15:41:47.188Z,1.42
2023-02-14T15:44:48.972Z,1.38
2023-02-14T15:47:56.971Z,1.10
2023-02-14T15:51:01.412Z,1.30
2023-02-14T15:54:21.354Z,1.20
2023-02-14T15:57:26.329Z,1.20
2023-02-14T16:00:28.128Z,1.30
2023-02-14T16:03:33.873Z,1.20
2023-02-14T16:06:44.726Z,1.30
2023-02-14T16:09:48.046Z,1.33
2023-02-14T16:12:59.383Z,1.20
2023-02-14T16:16:04.175Z,1.27
2023-02-14T16:19:32.400Z,1.30
2023-02-14T16:22:33.868Z,1.20
2023-02-14T16:25:35.368Z,1.40
2023-02-14T16:28:37.636Z,1.30
2023-02-14T16:32:06.135Z,1.30
2023-02-14T16:35:05.423Z,1.13
2023-02-14T16:38:12.465Z,1.27
2023-02-14T16:41:20.116Z,1.33
2023-02-14T16:44:22.463Z,1.45
2023-02-14T16:47:27.599Z,1.20
2023-02-14T16:50:29.162Z,1.15
2023-02-14T16:53:31.673Z,1.30
2023-02-14T16:56:37.034Z,1.17
2023-02-14T16:59:38.500Z,1.33
2023-02-14T17:02:41.415Z,1.40
2023-02-14T17:05:44.876Z,1.13
2023-02-14T17:08:49.599Z,1.23
2023-02-14T17:11:53.825Z,1.10
2023-02-14T17:14:59.313Z,1.05
2023-02-14T17:18:08.719Z,1.35
2023-02-14T17:21:10.322Z,1.10
2023-02-14T17:24:11.838Z,1.20
2023-02-14T17:27:15.454Z,1.20
2023-02-14T17:30:17.657Z,1.20
2023-02-14T17:33:20.035Z,1.17
2023-02-14T17:36:23.288Z,1.38
2023-02-14T17:39:24.846Z,1.20
2023-02-14T17:42:26.334Z,1.58
2023-02-14T17:45:27.956Z,1.20
2023-02-14T17:48:29.455Z,1.30
2023-02-14T17:51:30.989Z,1.20
2023-02-14T17:54:36.938Z,1.27
2023-02-14T17:57:40.820Z,1.30
2023-02-14T18:00:43.152Z,1.27
2023-02-14T18:03:45.170Z,1.15
2023-02-14T18:06:46.746Z,1.40
2023-02-14T18:09:48.212Z,1.20
2023-02-14T18:12:49.729Z,1.17
2023-02-14T18:15:52.855Z,1.10
2023-02-14T18:18:54.928Z,1.40
2023-02-14T18:21:56.442Z,1.58
2023-02-14T18:24:58.765Z,1.23
2023-02-14T18:28:00.350Z,1.23
2023-02-14T18:31:28.363Z,1.20
2023-02-14T18:34:30.020Z,1.27
2023-02-14T18:37:31.502Z,1.23
2023-02-14T18:40:33.264Z,1.35
2023-02-14T18:43:35.614Z,1.08
2023-02-14T18:46:37.410Z,1.30
2023-02-14T18:49:38.920Z,1.40
2023-02-14T18:52:40.451Z,1.30
2023-02-14T18:55:41.922Z,1.20
2023-02-14T18:58:50.480Z,1.27
2023-02-14T19:01:52.083Z,1.98
2023-02-14T19:04:53.894Z,1.50
2023-02-14T19:07:58.044Z,1.40
2023-02-14T19:10:59.857Z,1.30
2023-02-14T19:14:05.142Z,1.45
2023-02-14T19:17:07.000Z,1.40
2023-02-14T19:20:09.027Z,1.25
2023-02-14T19:23:10.591Z,1.38
2023-02-14T19:26:18.120Z,1.60
2023-02-14T19:29:20.998Z,1.38
2023-02-14T19:32:22.546Z,1.40
2023-02-14T19:35:24.239Z,1.40
2023-02-14T19:38:26.897Z,1.65
2023-02-14T19:41:31.503Z,1.40
2023-02-14T19:44:33.046Z,1.40
2023-02-14T19:47:46.799Z,1.20
2023-02-14T19:50:49.600Z,1.50
2023-02-14T19:53:52.369Z,1.60
2023-02-14T19:56:56.036Z,1.60
2023-02-14T19:59:57.659Z,1.58
2023-02-14T20:03:02.330Z,1.50
2023-02-14T20:06:04.019Z,1.63
2023-02-14T20:09:06.112Z,1.30
2023-02-14T20:12:07.729Z,1.50
2023-02-14T20:15:10.971Z,1.42
2023-02-14T20:18:12.585Z,1.60
2023-02-14T20:21:28.250Z,1.42
2023-02-14T20:24:31.776Z,1.40
2023-02-14T20:27:33.243Z,1.40
2023-02-14T20:30:34.769Z,1.50
2023-02-14T20:33:36.735Z,1.35
2023-02-14T20:36:38.651Z,1.55
2023-02-14T20:39:40.650Z,1.60
2023-02-14T20:42:42.314Z,1.70
2023-02-14T20:45:43.955Z,1.40
2023-02-14T20:48:45.509Z,1.40
2023-02-14T20:51:49.603Z,1.40
2023-02-14T20:54:51.373Z,1.98
2023-02-14T20:57:53.452Z,1.50
2023-02-14T21:00:56.368Z,1.52
2023-02-14T21:03:58.013Z,1.52
2023-02-14T21:07:03.921Z,1.58
2023-02-14T21:10:07.204Z,1.20
2023-02-14T21:13:08.705Z,1.33
2023-02-14T21:16:16.234Z,1.42
2023-02-14T21:19:17.743Z,1.30
2023-02-14T21:22:19.259Z,1.52
2023-02-14T21:25:23.397Z,1.60
2023-02-14T21:28:25.815Z,1.45
2023-02-14T21:31:27.724Z,1.52
2023-02-14T21:34:29.318Z,1.70
2023-02-14T21:37:32.216Z,1.50
2023-02-14T21:40:33.701Z,1.40
2023-02-14T21:43:37.237Z,1.30
2023-02-14T21:46:39.335Z,1.35
2023-02-14T21:49:59.145Z,1.30
2023-02-14T21:53:00.629Z,1.45
2023-02-14T21:56:05.260Z,1.50
2023-02-14T21:59:07.542Z,1.27
2023-02-14T22:02:11.236Z,1.50
2023-02-14T22:05:12.683Z,1.30
2023-02-14T22:08:14.157Z,1.50
2023-02-14T22:11:15.785Z,1.42
2023-02-14T22:14:17.454Z,1.40
2023-02-14T22:17:18.909Z,1.50
2023-02-14T22:20:20.385Z,1.40
2023-02-14T22:23:24.536Z,1.20
2023-02-14T22:26:28.689Z,1.40
2023-02-14T22:29:30.232Z,1.40
2023-02-14T22:32:31.957Z,1.40
2023-02-14T22:35:33.439Z,1.25
2023-02-14T22:38:36.224Z,1.33
2023-02-14T22:41:37.950Z,1.42
2023-02-14T22:44:39.529Z,1.48
2023-02-14T22:47:40.989Z,1.42
2023-02-14T22:50:42.483Z,1.30
2023-02-14T22:53:43.961Z,1.30
2023-02-14T22:56:47.681Z,1.30
2023-02-14T22:59:49.154Z,1.52
2023-02-14T23:02:50.716Z,1.42
2023-02-14T23:05:58.527Z,1.40
2023-02-14T23:09:00.916Z,1.60
2023-02-14T23:12:02.396Z,1.48
2023-02-14T23:15:22.357Z,1.60
2023-02-14T23:18:42.211Z,1.40
2023-02-14T23:21:55.754Z,1.45
2023-02-14T23:24:59.519Z,1.50
2023-02-14T23:28:01.070Z,1.30
2023-02-14T23:31:02.928Z,1.40
2023-02-14T23:34:04.646Z,1.20
2023-02-14T23:37:06.667Z,1.38
2023-02-14T23:40:09.749Z,1.40
2023-02-14T23:43:11.248Z,1.35
2023-02-14T23:46:12.755Z,1.50
2023-02-14T23:49:15.234Z,1.38
2023-02-14T23:52:16.698Z,1.30
2023-02-14T23:55:18.171Z,1.30
2023-02-14T23:58:19.649Z,1.20
